Airfield :
LOGIN :

Register | Disclaimer

   EN    FR    IT 

 










Legend :    VFR   Marginal VFR   IFR   Intensive IFR   Very Intensive IFR
Visi :
Ceiling :
>= 8 km
>= 3000ft
5 to 8 km
1000 to 3000 ft
1500m to 5 km
500 to 1000 ft
800 to 1500m
200 to 500 ft
< 800m
< 200 ft
Symbols :   Thunderstorms  Fog  Heavy snow  Heavy precipitations  Wind > 20 kt
SIGMETs :     Misc.  Thunderstorms  Icing  Turbulence  Mountain Waves  Volcanic Ashes







- Airport Elevation : 1276 ft
- IATA code : STR


EDDS - Stuttgart

CURRENT METAR :
  • 201550Z 25005KT 210V280 9999 VCSH FEW040 FEW049CB 24/14 Q1014 TEMPO TSRA

EXPIRED METARs :
  • 201520Z 25008KT 220V280 9999 FEW038 FEW045CB 24/14 Q1014 TEMPO TSRA
  • 201450Z 25007KT 180V300 9999 FEW037 FEW045CB 23/14 Q1014 NOSIG
  • 201420Z VRB06KT 9999 FEW034 FEW040CB 22/15 Q1014 NOSIG
  • 201350Z 20005KT 130V260 9999 FEW034 FEW038CB 21/14 Q1014 NOSIG
  • 201320Z VRB05KT 9999 FEW034 FEW038CB 22/14 Q1014 NOSIG

TAF TAF EDDS
Valid from the 20 at 12:00 until the 21 at 12:00 UTC


201100Z 2012/2112 17004KT 9999 SCT025
BECMG 2012/2014 25005KT
PROB40
TEMPO 2012/2019 24015G30KT TSRA BKN020CB
BECMG 2018/2020 VRB03KT
PROB30
TEMPO 2019/2022 24015G30KT SHRA BKN020CB
BECMG 2109/2111 35005KT
No reported NOTAMs for that airfield.



MET'MAP, your aeronautical weather chart ! - Copyright ORBIFLY December 2007 - Disclaimer

ORBIFLY MET'MAP TEAM :

Programming & Development : Alexandra Zaïnal
Concept & Development : Baudouin d'Aumeries
Co-Development & Prog : Marc-Olivier Méhu
Technical & hardware support : Manuel Goepfert

Contact : metmap@orbifly.com




SOURCES & CREDITS :

   NOAA